Details From LPHR - HORTA
To LPPD - PONTA DELGADA
Flight Number -
Tags generated
Created
Modified
Stats Distance 150 nm / 278 km
Max Altitude 17,500 ft / 5,334 m
Waypoints 3
Social Downloads 2
Likes 0
Share VATSIM

Download

Looking for another format? Having issues loading an existing format? Contact us
Advertisement - Login to hide

Notes

Basic altitude profile: - Ascent Rate: 2500ft/min - Ascent Speed: 250kts - Cruise Altitude: 35000ft - Cruise Speed: 420kts - Descent Rate: 1500ft/min - Descent Speed: 250kts Options: - Use NATs: yes - Use PACOTS: yes - Use low airways: yes - Use high airways: yes

Route

LPHR SOMUL LPPD

ID Type Via Altitude (ft/m) Position (lat/lon) Dist (leg/tot) Name
O LPHR APT - 0 / 0 38.51990 / -28.71579 - / 0 nm HORTA
SOMUL FIX - 17,500 / 5,334 38.22250 / -27.31694 68 / 68 nm
O LPPD APT - 0 / 0 37.74208 / -25.69774 81 / 150 nm PONTA DELGADA

Altitude Profile

Advertisement - Login to hide

LPHR

Details ICAO LPHR (HOR)
Name HORTA
Region Portugal
Timezone Atlantic/Azores (UTC+0.0)
Stats Elevation 117 ft / 36 m (AMSL)
Location 38.519900° -28.715900°
Runways 1
Magnetic Variation 9.388° W

METAR

LPHR 170630Z 04011KT 9999 FEW016 18/11 Q1030

Decode

TAF

Not found

Departure Runways

ID Width Length Bearing (true/mag) Surface Threshold Overrun Markings Lighting
08 148 ft / 45 m 5,226 ft / 1,593 m 89.64° / 99.03° ASPHALT 0 ft / 0 m 0 ft / 0 m PREC-APP CENTERLINE EDGE THRESHOLD MALSF
26 148 ft / 45 m 5,226 ft / 1,593 m 269.65° / 279.04° ASPHALT 0 ft / 0 m 0 ft / 0 m PREC-APP CENTERLINE EDGE THRESHOLD MALSF

LPPD

Details ICAO LPPD (PDL)
Name PONTA DELGADA
Region Portugal
Timezone Atlantic/Azores (UTC+0.0)
Stats Elevation 257 ft / 78 m (AMSL)
Location 37.742000° -25.697500°
Runways 1
Magnetic Variation 8.243° W

METAR

LPPD 170630Z 01006KT 340V040 9999 FEW022 18/14 Q1030

Decode

TAF

TAF LPPD 170500Z 1706/1806 03008KT 9999 SCT020 TEMPO 1706/1806 FEW018 BKN035 BECMG 1706/1709 05010KT TEMPO 1720/1806 VRB05KT

Decode

Destination Runways

ID Width Length Bearing (true/mag) Surface Threshold Overrun Markings Lighting
12 148 ft / 45 m 8,257 ft / 2,517 m 111.64° / 119.88° ASPHALT 92 ft / 28 m 361 ft / 110 m PREC-APP CENTERLINE EDGE THRESHOLD ALSF-II
30 148 ft / 45 m 8,257 ft / 2,517 m 291.65° / 299.90° ASPHALT 784 ft / 239 m 0 ft / 0 m PREC-APP CENTERLINE EDGE THRESHOLD ALSF-II

Approach Navaids

Runway Type Ident Frequency Range Bearing (true/mag) Slope Elevation
30 GS NL 109.50 MHz 10 nm / 19 km 292.56° / 300.80 ° 3.00° 259 ft / 79 m (AMSL)
30 DME NL 109.50 MHz 18 nm / 33 km - - 259 ft / 79 m (AMSL)
30 LOC-ILS NL 109.50 MHz 18 nm / 33 km 291.78° / 300.02 ° - 259 ft / 79 m (AMSL)

Popular Alternatives